Pagina principale
METAR-TAF:

METAR-TAF

Aeroporti :

Aeroporto di Taranto-Grottaglie

Taranto, Italia

latitudine: 40-31N, longitudine: 017-24E, altezza: 64 m

Osservazione

Il bollettino è stato emesso 1 ora e 22 minuti fa, alle 17:50 UTC
Vento calmo
Temperature 12°C
Umidità 94%
Pressione 1014 hPa
Visibilità 10 km o più
nessuna nube inferiore a 1500 m e nessun cumulonembo

METAR: LIBG 201750Z 00000KT CAVOK 12/11 Q1014

Ora: 20:12 (19:12 UTC)

Previsione

Il bollettino è stato emesso 2 ore e 12 minuti fa, alle 17:00 UTC
Previsione valida dal 20 alle 18 UTC al 21 alle 03 UTC
Vento 8 kt da sud/sud-ovest
Visibilità 10 km o più
Poco nuvoloso ad un'altezza di 1000 ft
Nubi sparse ad un'altezza di 3000 ft

TAF: LIBG 201700Z 2018/2103 20008KT 9999 FEW010 SCT030

Osservazioni e previsioni meteorologiche di più di 4000 aeroporti (messaggi METAR e TAF).

Le stazioni disponibili sono rappresentate dai dischi gialli e rossi sulla carta.

Puntare il mouse per vedere il nome della stazione.

Clicca sopra per visualizzare le osservazioni e previsioni meteorologiche.

Per cambiare la mappa : fare clic sui pulsanti verdi con una croce nera per ingrandire, il pulsante verde con un trattino per diminuire, o sulla freccia verde per le mappe adiacenti.


METAR-TAF: